sensor_id;sensor_type;location;lat;lon;timestamp;temperature;humidity
53282;DHT22;39167;52.794;6.892;2022-12-18T00:01:23;-3.50;99.90
53282;DHT22;39167;52.794;6.892;2022-12-18T00:03:51;-3.60;99.90
53282;DHT22;39167;52.794;6.892;2022-12-18T00:06:17;-3.60;99.90
53282;DHT22;39167;52.794;6.892;2022-12-18T00:08:44;-3.60;99.90
53282;DHT22;39167;52.794;6.892;2022-12-18T00:11:16;-3.70;99.90
53282;DHT22;39167;52.794;6.892;2022-12-18T00:13:42;-3.60;99.90
53282;DHT22;39167;52.794;6.892;2022-12-18T00:16:13;-3.60;99.90
53282;DHT22;39167;52.794;6.892;2022-12-18T00:18:39;-3.70;99.90
53282;DHT22;39167;52.794;6.892;2022-12-18T00:21:07;-3.70;99.90
53282;DHT22;39167;52.794;6.892;2022-12-18T00:23:34;-3.70;99.90
53282;DHT22;39167;52.794;6.892;2022-12-18T00:26:06;-3.70;99.90
53282;DHT22;39167;52.794;6.892;2022-12-18T00:28:32;-3.70;99.90
53282;DHT22;39167;52.794;6.892;2022-12-18T00:31:02;-3.70;99.90
53282;DHT22;39167;52.794;6.892;2022-12-18T00:33:28;-3.70;99.90
53282;DHT22;39167;52.794;6.892;2022-12-18T00:35:54;-3.70;99.90
53282;DHT22;39167;52.794;6.892;2022-12-18T00:38:20;-3.80;99.90
53282;DHT22;39167;52.794;6.892;2022-12-18T00:40:46;-3.80;99.90
53282;DHT22;39167;52.794;6.892;2022-12-18T00:43:11;-3.80;99.90
53282;DHT22;39167;52.794;6.892;2022-12-18T00:45:37;-3.80;99.90
53282;DHT22;39167;52.794;6.892;2022-12-18T00:48:03;-3.80;99.90
53282;DHT22;39167;52.794;6.892;2022-12-18T00:50:29;-3.80;99.90
53282;DHT22;39167;52.794;6.892;2022-12-18T00:52:55;-3.80;99.90
53282;DHT22;39167;52.794;6.892;2022-12-18T00:55:20;-3.80;99.90
53282;DHT22;39167;52.794;6.892;2022-12-18T00:57:46;-3.90;99.90
53282;DHT22;39167;52.794;6.892;2022-12-18T01:00:14;-3.90;99.90
53282;DHT22;39167;52.794;6.892;2022-12-18T01:02:40;-3.90;99.90
53282;DHT22;39167;52.794;6.892;2022-12-18T01:05:08;-3.90;99.90
53282;DHT22;39167;52.794;6.892;2022-12-18T01:07:34;-4.00;99.90
53282;DHT22;39167;52.794;6.892;2022-12-18T01:09:59;-4.00;99.90
53282;DHT22;39167;52.794;6.892;2022-12-18T01:12:25;-4.00;99.90
53282;DHT22;39167;52.794;6.892;2022-12-18T01:14:51;-4.00;99.90
53282;DHT22;39167;52.794;6.892;2022-12-18T01:17:16;-4.10;99.90
53282;DHT22;39167;52.794;6.892;2022-12-18T01:19:42;-4.10;99.90
53282;DHT22;39167;52.794;6.892;2022-12-18T01:22:07;-4.10;99.90
53282;DHT22;39167;52.794;6.892;2022-12-18T01:24:33;-4.10;99.90
53282;DHT22;39167;52.794;6.892;2022-12-18T01:26:59;-4.20;99.90
53282;DHT22;39167;52.794;6.892;2022-12-18T01:29:24;-4.20;99.90
53282;DHT22;39167;52.794;6.892;2022-12-18T01:31:50;-4.20;99.90
53282;DHT22;39167;52.794;6.892;2022-12-18T01:34:16;-4.20;99.90
53282;DHT22;39167;52.794;6.892;2022-12-18T01:36:42;-4.30;99.90
53282;DHT22;39167;52.794;6.892;2022-12-18T01:39:11;-4.30;99.90
53282;DHT22;39167;52.794;6.892;2022-12-18T01:41:37;-4.40;99.90
53282;DHT22;39167;52.794;6.892;2022-12-18T01:47:22;-4.40;99.90
53282;DHT22;39167;52.794;6.892;2022-12-18T01:49:48;-4.40;99.90
53282;DHT22;39167;52.794;6.892;2022-12-18T01:52:15;-4.40;99.90
53282;DHT22;39167;52.794;6.892;2022-12-18T01:54:41;-4.40;99.90
53282;DHT22;39167;52.794;6.892;2022-12-18T01:57:07;-4.40;99.90
53282;DHT22;39167;52.794;6.892;2022-12-18T01:59:33;-4.50;99.90
53282;DHT22;39167;52.794;6.892;2022-12-18T02:02:01;-3.60;99.90
53282;DHT22;39167;52.794;6.892;2022-12-18T02:04:27;-4.60;99.90
53282;DHT22;39167;52.794;6.892;2022-12-18T02:07:24;-4.60;99.90
53282;DHT22;39167;52.794;6.892;2022-12-18T02:10:06;-4.60;99.90
53282;DHT22;39167;52.794;6.892;2022-12-18T02:12:48;-4.60;99.90
53282;DHT22;39167;52.794;6.892;2022-12-18T02:15:30;-4.70;99.90
53282;DHT22;39167;52.794;6.892;2022-12-18T02:18:09;-4.70;99.90
53282;DHT22;39167;52.794;6.892;2022-12-18T02:28:24;-4.80;99.90
53282;DHT22;39167;52.794;6.892;2022-12-18T02:30:53;-3.10;99.90
53282;DHT22;39167;52.794;6.892;2022-12-18T02:33:22;-4.80;99.90
53282;DHT22;39167;52.794;6.892;2022-12-18T02:35:49;-4.90;99.90
53282;DHT22;39167;52.794;6.892;2022-12-18T02:38:16;-4.90;99.90
53282;DHT22;39167;52.794;6.892;2022-12-18T02:40:43;-5.00;99.90
53282;DHT22;39167;52.794;6.892;2022-12-18T02:43:12;-5.00;99.90
53282;DHT22;39167;52.794;6.892;2022-12-18T03:00:18;-5.20;99.90
53282;DHT22;39167;52.794;6.892;2022-12-18T03:03:01;-5.20;99.90
53282;DHT22;39167;52.794;6.892;2022-12-18T03:05:36;-5.20;99.90
53282;DHT22;39167;52.794;6.892;2022-12-18T03:08:08;-5.30;99.90
53282;DHT22;39167;52.794;6.892;2022-12-18T03:10:43;-5.30;99.90
53282;DHT22;39167;52.794;6.892;2022-12-18T03:13:16;-5.30;99.90
53282;DHT22;39167;52.794;6.892;2022-12-18T03:15:50;-5.40;99.90
53282;DHT22;39167;52.794;6.892;2022-12-18T03:18:44;-5.20;99.90
53282;DHT22;39167;52.794;6.892;2022-12-18T03:21:13;-5.40;99.90
53282;DHT22;39167;52.794;6.892;2022-12-18T03:23:43;-5.40;99.90
53282;DHT22;39167;52.794;6.892;2022-12-18T03:26:14;-5.40;99.90
53282;DHT22;39167;52.794;6.892;2022-12-18T03:28:45;-5.40;99.90
53282;DHT22;39167;52.794;6.892;2022-12-18T03:31:14;-5.50;99.90
53282;DHT22;39167;52.794;6.892;2022-12-18T03:33:58;-5.50;99.90
53282;DHT22;39167;52.794;6.892;2022-12-18T03:36:25;-5.50;99.90
53282;DHT22;39167;52.794;6.892;2022-12-18T03:38:52;-5.50;99.90
53282;DHT22;39167;52.794;6.892;2022-12-18T03:41:33;-5.50;99.90
53282;DHT22;39167;52.794;6.892;2022-12-18T03:46:47;-5.50;99.90
53282;DHT22;39167;52.794;6.892;2022-12-18T03:49:25;-5.50;99.90
53282;DHT22;39167;52.794;6.892;2022-12-18T03:51:57;-5.50;99.90
53282;DHT22;39167;52.794;6.892;2022-12-18T03:54:27;-5.50;99.90
53282;DHT22;39167;52.794;6.892;2022-12-18T03:57:01;-5.60;99.90
53282;DHT22;39167;52.794;6.892;2022-12-18T03:59:30;-5.60;99.90
53282;DHT22;39167;52.794;6.892;2022-12-18T04:01:57;-5.60;99.90
53282;DHT22;39167;52.794;6.892;2022-12-18T04:04:25;-5.60;99.90
53282;DHT22;39167;52.794;6.892;2022-12-18T04:06:51;-5.60;99.90
53282;DHT22;39167;52.794;6.892;2022-12-18T04:09:19;-5.60;99.90
53282;DHT22;39167;52.794;6.892;2022-12-18T04:11:46;-5.70;99.90
53282;DHT22;39167;52.794;6.892;2022-12-18T04:14:12;-5.70;99.90
53282;DHT22;39167;52.794;6.892;2022-12-18T04:16:37;-5.70;99.90
53282;DHT22;39167;52.794;6.892;2022-12-18T04:19:04;-5.70;99.90
53282;DHT22;39167;52.794;6.892;2022-12-18T04:21:29;-5.70;99.90
53282;DHT22;39167;52.794;6.892;2022-12-18T04:23:55;-5.70;99.90
53282;DHT22;39167;52.794;6.892;2022-12-18T04:26:21;-5.80;99.90
53282;DHT22;39167;52.794;6.892;2022-12-18T04:28:47;-5.80;99.90
53282;DHT22;39167;52.794;6.892;2022-12-18T04:31:12;-5.80;99.90
53282;DHT22;39167;52.794;6.892;2022-12-18T04:33:38;-5.80;99.90
53282;DHT22;39167;52.794;6.892;2022-12-18T04:36:04;-5.90;99.90
53282;DHT22;39167;52.794;6.892;2022-12-18T04:38:32;-5.90;99.90
53282;DHT22;39167;52.794;6.892;2022-12-18T04:40:58;-5.90;99.90
53282;DHT22;39167;52.794;6.892;2022-12-18T04:43:24;-5.90;99.90
53282;DHT22;39167;52.794;6.892;2022-12-18T04:45:50;-5.90;99.90
53282;DHT22;39167;52.794;6.892;2022-12-18T04:48:15;-6.00;99.90
53282;DHT22;39167;52.794;6.892;2022-12-18T04:50:41;-6.00;99.90
53282;DHT22;39167;52.794;6.892;2022-12-18T04:53:07;-6.00;99.90
53282;DHT22;39167;52.794;6.892;2022-12-18T04:55:32;-6.00;99.90
53282;DHT22;39167;52.794;6.892;2022-12-18T04:57:58;-6.00;99.90
53282;DHT22;39167;52.794;6.892;2022-12-18T05:00:23;-6.00;99.90
53282;DHT22;39167;52.794;6.892;2022-12-18T05:02:49;-6.00;99.90
53282;DHT22;39167;52.794;6.892;2022-12-18T05:05:15;-6.00;99.90
53282;DHT22;39167;52.794;6.892;2022-12-18T05:07:41;-6.00;99.90
53282;DHT22;39167;52.794;6.892;2022-12-18T05:10:07;-6.00;99.90
53282;DHT22;39167;52.794;6.892;2022-12-18T05:12:33;-6.00;99.90
53282;DHT22;39167;52.794;6.892;2022-12-18T05:14:58;-6.00;99.90
53282;DHT22;39167;52.794;6.892;2022-12-18T05:17:24;-6.00;99.90
53282;DHT22;39167;52.794;6.892;2022-12-18T05:19:50;-6.10;99.90
53282;DHT22;39167;52.794;6.892;2022-12-18T05:22:15;-6.10;99.90
53282;DHT22;39167;52.794;6.892;2022-12-18T05:24:41;-6.10;99.90
53282;DHT22;39167;52.794;6.892;2022-12-18T05:27:07;-5.50;99.90
53282;DHT22;39167;52.794;6.892;2022-12-18T05:29:32;-6.10;99.90
53282;DHT22;39167;52.794;6.892;2022-12-18T05:31:58;-6.10;99.90
53282;DHT22;39167;52.794;6.892;2022-12-18T05:34:24;-6.10;99.90
53282;DHT22;39167;52.794;6.892;2022-12-18T05:36:49;-6.20;99.90
53282;DHT22;39167;52.794;6.892;2022-12-18T05:39:15;-6.20;99.90
53282;DHT22;39167;52.794;6.892;2022-12-18T05:41:41;-6.20;99.90
53282;DHT22;39167;52.794;6.892;2022-12-18T05:44:06;-6.20;99.90
53282;DHT22;39167;52.794;6.892;2022-12-18T05:46:32;-6.20;99.90
53282;DHT22;39167;52.794;6.892;2022-12-18T05:49:01;-6.20;99.90
53282;DHT22;39167;52.794;6.892;2022-12-18T05:51:26;-6.20;99.90
53282;DHT22;39167;52.794;6.892;2022-12-18T05:53:52;-6.20;99.90
53282;DHT22;39167;52.794;6.892;2022-12-18T05:56:20;-6.30;99.90
53282;DHT22;39167;52.794;6.892;2022-12-18T05:58:47;-6.30;99.90
53282;DHT22;39167;52.794;6.892;2022-12-18T06:01:19;-6.20;99.90
53282;DHT22;39167;52.794;6.892;2022-12-18T06:03:45;-6.20;99.90
53282;DHT22;39167;52.794;6.892;2022-12-18T06:06:17;-6.30;99.90
53282;DHT22;39167;52.794;6.892;2022-12-18T06:08:43;-6.30;99.90
53282;DHT22;39167;52.794;6.892;2022-12-18T06:11:09;-6.30;99.90
53282;DHT22;39167;52.794;6.892;2022-12-18T06:13:36;-6.30;99.90
53282;DHT22;39167;52.794;6.892;2022-12-18T06:16:03;-6.30;99.90
53282;DHT22;39167;52.794;6.892;2022-12-18T06:18:29;-6.30;99.90
53282;DHT22;39167;52.794;6.892;2022-12-18T06:20:56;-6.30;99.90
53282;DHT22;39167;52.794;6.892;2022-12-18T06:23:22;-6.40;99.90
53282;DHT22;39167;52.794;6.892;2022-12-18T06:25:48;-6.40;99.90
53282;DHT22;39167;52.794;6.892;2022-12-18T06:28:14;-6.40;99.90
53282;DHT22;39167;52.794;6.892;2022-12-18T06:30:40;-6.40;99.90
53282;DHT22;39167;52.794;6.892;2022-12-18T06:33:08;-6.40;99.90
53282;DHT22;39167;52.794;6.892;2022-12-18T06:35:34;-6.40;99.90
53282;DHT22;39167;52.794;6.892;2022-12-18T06:38:01;-6.40;99.90
53282;DHT22;39167;52.794;6.892;2022-12-18T06:40:27;-6.40;99.90
53282;DHT22;39167;52.794;6.892;2022-12-18T06:42:53;-6.40;99.90
53282;DHT22;39167;52.794;6.892;2022-12-18T06:45:18;-6.40;99.90
53282;DHT22;39167;52.794;6.892;2022-12-18T06:47:44;-6.40;99.90
53282;DHT22;39167;52.794;6.892;2022-12-18T06:50:10;-6.40;99.90
53282;DHT22;39167;52.794;6.892;2022-12-18T06:52:36;-6.40;99.90
53282;DHT22;39167;52.794;6.892;2022-12-18T06:55:02;-6.50;99.90
53282;DHT22;39167;52.794;6.892;2022-12-18T06:57:28;-6.40;99.90
53282;DHT22;39167;52.794;6.892;2022-12-18T06:59:55;-6.40;99.90
53282;DHT22;39167;52.794;6.892;2022-12-18T07:02:21;-6.50;99.90
53282;DHT22;39167;52.794;6.892;2022-12-18T07:04:46;-6.50;99.90
53282;DHT22;39167;52.794;6.892;2022-12-18T07:07:12;-6.40;99.90
53282;DHT22;39167;52.794;6.892;2022-12-18T07:09:37;-6.40;99.90
53282;DHT22;39167;52.794;6.892;2022-12-18T07:12:03;-6.50;99.90
53282;DHT22;39167;52.794;6.892;2022-12-18T07:14:30;-6.50;99.90
53282;DHT22;39167;52.794;6.892;2022-12-18T07:16:56;-6.50;99.90
53282;DHT22;39167;52.794;6.892;2022-12-18T07:19:23;-6.50;99.90
53282;DHT22;39167;52.794;6.892;2022-12-18T07:21:50;-6.50;99.90
53282;DHT22;39167;52.794;6.892;2022-12-18T07:24:15;-6.50;99.90
53282;DHT22;39167;52.794;6.892;2022-12-18T07:26:41;-6.50;99.90
53282;DHT22;39167;52.794;6.892;2022-12-18T07:29:07;-6.50;99.90
53282;DHT22;39167;52.794;6.892;2022-12-18T07:31:32;-6.60;99.90
53282;DHT22;39167;52.794;6.892;2022-12-18T07:33:58;-6.60;99.90
53282;DHT22;39167;52.794;6.892;2022-12-18T07:36:24;-6.60;99.90
53282;DHT22;39167;52.794;6.892;2022-12-18T07:38:50;-6.60;99.90
53282;DHT22;39167;52.794;6.892;2022-12-18T07:41:18;-6.50;99.90
53282;DHT22;39167;52.794;6.892;2022-12-18T07:43:44;-6.60;99.90
53282;DHT22;39167;52.794;6.892;2022-12-18T07:46:10;-6.60;99.90
53282;DHT22;39167;52.794;6.892;2022-12-18T07:48:36;-6.60;99.90
53282;DHT22;39167;52.794;6.892;2022-12-18T07:51:04;-6.60;99.90
53282;DHT22;39167;52.794;6.892;2022-12-18T07:53:31;-6.60;99.90
53282;DHT22;39167;52.794;6.892;2022-12-18T07:56:01;-6.60;99.90
53282;DHT22;39167;52.794;6.892;2022-12-18T07:58:28;-6.50;99.90
53282;DHT22;39167;52.794;6.892;2022-12-18T08:00:54;-6.50;99.90
53282;DHT22;39167;52.794;6.892;2022-12-18T08:03:19;-6.50;99.90
53282;DHT22;39167;52.794;6.892;2022-12-18T08:05:45;-6.50;99.90
53282;DHT22;39167;52.794;6.892;2022-12-18T08:08:11;-6.40;99.90
53282;DHT22;39167;52.794;6.892;2022-12-18T08:10:37;-6.40;99.90
53282;DHT22;39167;52.794;6.892;2022-12-18T08:13:03;-6.40;99.90
53282;DHT22;39167;52.794;6.892;2022-12-18T08:15:29;-6.40;99.90
53282;DHT22;39167;52.794;6.892;2022-12-18T08:17:58;-6.30;99.90
53282;DHT22;39167;52.794;6.892;2022-12-18T08:20:23;-6.30;99.90
53282;DHT22;39167;52.794;6.892;2022-12-18T08:22:49;-6.30;99.90
53282;DHT22;39167;52.794;6.892;2022-12-18T08:25:15;-6.20;99.90
53282;DHT22;39167;52.794;6.892;2022-12-18T08:27:41;-6.20;99.90
53282;DHT22;39167;52.794;6.892;2022-12-18T08:30:07;-6.20;99.90
53282;DHT22;39167;52.794;6.892;2022-12-18T08:32:33;-6.10;99.90
53282;DHT22;39167;52.794;6.892;2022-12-18T08:34:59;-6.10;99.90
53282;DHT22;39167;52.794;6.892;2022-12-18T08:37:24;-6.00;99.90
53282;DHT22;39167;52.794;6.892;2022-12-18T08:39:50;-6.00;99.90
53282;DHT22;39167;52.794;6.892;2022-12-18T08:42:16;-5.90;99.90
53282;DHT22;39167;52.794;6.892;2022-12-18T08:45:00;-5.80;99.90
53282;DHT22;39167;52.794;6.892;2022-12-18T08:47:26;-5.80;99.90
53282;DHT22;39167;52.794;6.892;2022-12-18T08:49:52;-5.70;99.90
53282;DHT22;39167;52.794;6.892;2022-12-18T08:52:17;-5.70;99.90
53282;DHT22;39167;52.794;6.892;2022-12-18T08:54:43;-5.60;99.90
53282;DHT22;39167;52.794;6.892;2022-12-18T08:57:09;-5.60;99.90
53282;DHT22;39167;52.794;6.892;2022-12-18T08:59:34;-5.50;99.90
53282;DHT22;39167;52.794;6.892;2022-12-18T09:02:00;-5.50;99.90
53282;DHT22;39167;52.794;6.892;2022-12-18T09:04:26;-5.40;99.90
53282;DHT22;39167;52.794;6.892;2022-12-18T09:06:52;-5.40;99.90
53282;DHT22;39167;52.794;6.892;2022-12-18T09:09:17;-4.00;99.90
53282;DHT22;39167;52.794;6.892;2022-12-18T09:11:43;-5.30;99.90
53282;DHT22;39167;52.794;6.892;2022-12-18T09:14:09;-3.60;99.90
53282;DHT22;39167;52.794;6.892;2022-12-18T09:16:35;-5.30;99.90
53282;DHT22;39167;52.794;6.892;2022-12-18T09:19:02;-5.20;99.90
53282;DHT22;39167;52.794;6.892;2022-12-18T09:21:31;-5.10;99.90
53282;DHT22;39167;52.794;6.892;2022-12-18T09:23:57;-5.10;99.90
53282;DHT22;39167;52.794;6.892;2022-12-18T09:26:24;-5.00;99.90
53282;DHT22;39167;52.794;6.892;2022-12-18T09:28:50;-4.90;99.90
53282;DHT22;39167;52.794;6.892;2022-12-18T09:31:18;-4.90;99.90
53282;DHT22;39167;52.794;6.892;2022-12-18T09:33:44;-4.80;99.90
53282;DHT22;39167;52.794;6.892;2022-12-18T09:36:16;-4.80;99.90
53282;DHT22;39167;52.794;6.892;2022-12-18T09:38:42;-4.70;99.90
53282;DHT22;39167;52.794;6.892;2022-12-18T09:49:42;-4.40;99.90
53282;DHT22;39167;52.794;6.892;2022-12-18T09:54:47;-4.30;99.90
53282;DHT22;39167;52.794;6.892;2022-12-18T09:57:18;-4.30;99.90
53282;DHT22;39167;52.794;6.892;2022-12-18T09:59:50;-4.20;99.90
53282;DHT22;39167;52.794;6.892;2022-12-18T10:02:22;-4.20;99.90
53282;DHT22;39167;52.794;6.892;2022-12-18T10:05:15;-4.10;99.90
53282;DHT22;39167;52.794;6.892;2022-12-18T10:08:02;-3.90;99.90
53282;DHT22;39167;52.794;6.892;2022-12-18T10:10:36;-3.90;99.90
53282;DHT22;39167;52.794;6.892;2022-12-18T10:13:12;-3.90;99.90
53282;DHT22;39167;52.794;6.892;2022-12-18T10:16:16;-3.80;99.90
53282;DHT22;39167;52.794;6.892;2022-12-18T10:21:05;-2.90;99.90
53282;DHT22;39167;52.794;6.892;2022-12-18T10:26:24;-3.60;99.90
53282;DHT22;39167;52.794;6.892;2022-12-18T10:28:51;-3.60;99.90
53282;DHT22;39167;52.794;6.892;2022-12-18T10:31:25;-3.60;99.90
53282;DHT22;39167;52.794;6.892;2022-12-18T10:33:53;-3.60;99.90
53282;DHT22;39167;52.794;6.892;2022-12-18T10:36:20;-3.00;99.90
53282;DHT22;39167;52.794;6.892;2022-12-18T10:38:46;-3.40;99.90
53282;DHT22;39167;52.794;6.892;2022-12-18T10:43:44;-3.50;99.90
53282;DHT22;39167;52.794;6.892;2022-12-18T10:53:58;-3.40;99.90
53282;DHT22;39167;52.794;6.892;2022-12-18T10:56:27;-3.40;99.90
53282;DHT22;39167;52.794;6.892;2022-12-18T10:59:03;-3.40;99.90
53282;DHT22;39167;52.794;6.892;2022-12-18T11:04:17;-3.40;99.90
53282;DHT22;39167;52.794;6.892;2022-12-18T11:07:01;-3.30;99.90
53282;DHT22;39167;52.794;6.892;2022-12-18T11:09:37;-3.30;99.90
53282;DHT22;39167;52.794;6.892;2022-12-18T11:12:08;-3.30;99.90
53282;DHT22;39167;52.794;6.892;2022-12-18T11:14:46;-3.20;99.90
53282;DHT22;39167;52.794;6.892;2022-12-18T11:17:29;-3.20;99.90
53282;DHT22;39167;52.794;6.892;2022-12-18T11:19:58;-3.20;99.90
53282;DHT22;39167;52.794;6.892;2022-12-18T11:22:29;-3.20;99.90
53282;DHT22;39167;52.794;6.892;2022-12-18T11:24:59;-3.10;99.90
53282;DHT22;39167;52.794;6.892;2022-12-18T11:27:26;-3.10;99.90
53282;DHT22;39167;52.794;6.892;2022-12-18T11:30:06;-3.10;99.90
53282;DHT22;39167;52.794;6.892;2022-12-18T11:32:43;-2.60;99.90
53282;DHT22;39167;52.794;6.892;2022-12-18T11:35:19;-3.00;99.90
53282;DHT22;39167;52.794;6.892;2022-12-18T11:37:54;-3.00;99.90
53282;DHT22;39167;52.794;6.892;2022-12-18T11:40:34;-3.00;99.90
53282;DHT22;39167;52.794;6.892;2022-12-18T11:43:28;-2.90;99.90
53282;DHT22;39167;52.794;6.892;2022-12-18T11:46:06;-2.90;99.90
53282;DHT22;39167;52.794;6.892;2022-12-18T11:48:58;-2.90;99.90
53282;DHT22;39167;52.794;6.892;2022-12-18T11:51:31;-2.80;99.90
53282;DHT22;39167;52.794;6.892;2022-12-18T11:54:00;-2.80;99.90
53282;DHT22;39167;52.794;6.892;2022-12-18T12:03:59;-2.70;99.90
53282;DHT22;39167;52.794;6.892;2022-12-18T12:15:40;-2.60;99.90
53282;DHT22;39167;52.794;6.892;2022-12-18T12:18:48;-2.60;99.90
53282;DHT22;39167;52.794;6.892;2022-12-18T12:21:41;-2.50;99.90
53282;DHT22;39167;52.794;6.892;2022-12-18T12:27:14;-2.50;99.90
53282;DHT22;39167;52.794;6.892;2022-12-18T12:32:48;-2.50;99.90
53282;DHT22;39167;52.794;6.892;2022-12-18T12:38:25;-2.40;99.90
53282;DHT22;39167;52.794;6.892;2022-12-18T12:41:01;-2.40;99.90
53282;DHT22;39167;52.794;6.892;2022-12-18T12:48:49;-2.30;99.90
53282;DHT22;39167;52.794;6.892;2022-12-18T12:51:19;-2.30;99.90
53282;DHT22;39167;52.794;6.892;2022-12-18T12:53:45;-2.30;99.90
53282;DHT22;39167;52.794;6.892;2022-12-18T12:56:14;-2.30;99.90
53282;DHT22;39167;52.794;6.892;2022-12-18T13:01:41;-2.30;99.90
53282;DHT22;39167;52.794;6.892;2022-12-18T13:04:39;-2.30;99.90
53282;DHT22;39167;52.794;6.892;2022-12-18T13:07:27;-2.20;99.90
53282;DHT22;39167;52.794;6.892;2022-12-18T13:10:19;-2.20;99.90
53282;DHT22;39167;52.794;6.892;2022-12-18T13:13:06;-2.10;99.90
53282;DHT22;39167;52.794;6.892;2022-12-18T13:15:48;-2.10;99.90
53282;DHT22;39167;52.794;6.892;2022-12-18T13:18:20;-2.10;99.90
53282;DHT22;39167;52.794;6.892;2022-12-18T13:34:35;-2.10;99.90
53282;DHT22;39167;52.794;6.892;2022-12-18T13:39:57;-2.00;99.90
53282;DHT22;39167;52.794;6.892;2022-12-18T13:42:37;-2.00;99.90
53282;DHT22;39167;52.794;6.892;2022-12-18T13:45:42;-2.00;99.90
53282;DHT22;39167;52.794;6.892;2022-12-18T13:48:27;-2.00;99.90
53282;DHT22;39167;52.794;6.892;2022-12-18T13:51:07;-2.00;99.90
53282;DHT22;39167;52.794;6.892;2022-12-18T13:56:03;-2.00;99.90
53282;DHT22;39167;52.794;6.892;2022-12-18T13:58:29;-0.90;99.90
53282;DHT22;39167;52.794;6.892;2022-12-18T14:00:55;-2.00;99.90
53282;DHT22;39167;52.794;6.892;2022-12-18T14:03:25;-2.00;99.90
53282;DHT22;39167;52.794;6.892;2022-12-18T14:06:08;-2.00;99.90
53282;DHT22;39167;52.794;6.892;2022-12-18T14:08:39;-1.70;99.90
53282;DHT22;39167;52.794;6.892;2022-12-18T14:11:06;-1.50;99.90
53282;DHT22;39167;52.794;6.892;2022-12-18T14:13:37;-2.00;99.90
53282;DHT22;39167;52.794;6.892;2022-12-18T14:16:05;-2.00;99.90
53282;DHT22;39167;52.794;6.892;2022-12-18T14:18:42;-2.00;99.90
53282;DHT22;39167;52.794;6.892;2022-12-18T14:21:28;-2.00;99.90
53282;DHT22;39167;52.794;6.892;2022-12-18T14:26:32;-2.10;99.90
53282;DHT22;39167;52.794;6.892;2022-12-18T14:29:01;-0.80;99.90
53282;DHT22;39167;52.794;6.892;2022-12-18T14:31:29;-2.10;99.90
53282;DHT22;39167;52.794;6.892;2022-12-18T14:33:55;-2.20;99.90
53282;DHT22;39167;52.794;6.892;2022-12-18T14:36:26;-2.10;99.90
53282;DHT22;39167;52.794;6.892;2022-12-18T14:38:56;-2.20;99.90
53282;DHT22;39167;52.794;6.892;2022-12-18T14:41:22;-2.20;99.90
53282;DHT22;39167;52.794;6.892;2022-12-18T14:43:50;-2.20;99.90
53282;DHT22;39167;52.794;6.892;2022-12-18T14:46:34;-2.20;99.90
53282;DHT22;39167;52.794;6.892;2022-12-18T14:51:53;-2.20;99.90
53282;DHT22;39167;52.794;6.892;2022-12-18T14:54:20;-2.20;99.90
53282;DHT22;39167;52.794;6.892;2022-12-18T14:56:51;-2.20;99.90
53282;DHT22;39167;52.794;6.892;2022-12-18T14:59:24;-2.20;99.90
53282;DHT22;39167;52.794;6.892;2022-12-18T15:04:35;-2.00;99.90
53282;DHT22;39167;52.794;6.892;2022-12-18T15:07:21;-2.20;99.90
53282;DHT22;39167;52.794;6.892;2022-12-18T15:10:08;-2.20;99.90
53282;DHT22;39167;52.794;6.892;2022-12-18T15:18:09;-2.20;99.90
53282;DHT22;39167;52.794;6.892;2022-12-18T15:20:49;-2.20;99.90
53282;DHT22;39167;52.794;6.892;2022-12-18T15:23:17;-2.20;99.90
53282;DHT22;39167;52.794;6.892;2022-12-18T15:25:44;-2.20;99.90
53282;DHT22;39167;52.794;6.892;2022-12-18T15:28:33;-2.20;99.90
53282;DHT22;39167;52.794;6.892;2022-12-18T15:31:02;-2.20;99.90
53282;DHT22;39167;52.794;6.892;2022-12-18T15:33:35;-2.20;99.90
53282;DHT22;39167;52.794;6.892;2022-12-18T15:36:04;-2.20;99.90
53282;DHT22;39167;52.794;6.892;2022-12-18T15:38:30;-2.20;99.90
53282;DHT22;39167;52.794;6.892;2022-12-18T15:40:56;-2.20;99.90
53282;DHT22;39167;52.794;6.892;2022-12-18T15:43:23;-2.30;99.90
53282;DHT22;39167;52.794;6.892;2022-12-18T15:46:00;-2.20;99.90
53282;DHT22;39167;52.794;6.892;2022-12-18T15:48:26;-2.20;99.90
53282;DHT22;39167;52.794;6.892;2022-12-18T15:50:53;-2.20;99.90
53282;DHT22;39167;52.794;6.892;2022-12-18T15:53:22;-2.20;99.90
53282;DHT22;39167;52.794;6.892;2022-12-18T15:55:48;-2.20;99.90
53282;DHT22;39167;52.794;6.892;2022-12-18T15:58:33;-2.20;99.90
53282;DHT22;39167;52.794;6.892;2022-12-18T16:00:59;-2.20;99.90
53282;DHT22;39167;52.794;6.892;2022-12-18T16:03:26;-2.20;99.90
53282;DHT22;39167;52.794;6.892;2022-12-18T16:05:51;-2.20;99.90
53282;DHT22;39167;52.794;6.892;2022-12-18T16:08:17;-2.20;99.90
53282;DHT22;39167;52.794;6.892;2022-12-18T16:10:43;-1.10;99.90
53282;DHT22;39167;52.794;6.892;2022-12-18T16:13:13;-2.10;99.90
53282;DHT22;39167;52.794;6.892;2022-12-18T16:15:40;-2.20;99.90
53282;DHT22;39167;52.794;6.892;2022-12-18T16:18:05;-2.20;99.90
53282;DHT22;39167;52.794;6.892;2022-12-18T16:20:31;-2.20;99.90
53282;DHT22;39167;52.794;6.892;2022-12-18T16:22:57;-2.20;99.90
53282;DHT22;39167;52.794;6.892;2022-12-18T16:25:25;-2.20;99.90
53282;DHT22;39167;52.794;6.892;2022-12-18T16:27:52;-2.20;99.90
53282;DHT22;39167;52.794;6.892;2022-12-18T16:30:24;-2.20;99.90
53282;DHT22;39167;52.794;6.892;2022-12-18T16:32:51;-2.20;99.90
53282;DHT22;39167;52.794;6.892;2022-12-18T16:35:17;-2.20;99.90
53282;DHT22;39167;52.794;6.892;2022-12-18T16:37:43;-2.20;99.90
53282;DHT22;39167;52.794;6.892;2022-12-18T16:40:11;-2.20;99.90
53282;DHT22;39167;52.794;6.892;2022-12-18T16:42:39;-2.20;99.90
53282;DHT22;39167;52.794;6.892;2022-12-18T16:45:07;-2.20;99.90
53282;DHT22;39167;52.794;6.892;2022-12-18T16:47:34;-2.20;99.90
53282;DHT22;39167;52.794;6.892;2022-12-18T16:49:59;-1.40;99.90
53282;DHT22;39167;52.794;6.892;2022-12-18T16:52:25;-2.20;99.90
53282;DHT22;39167;52.794;6.892;2022-12-18T16:54:51;-2.10;99.90
53282;DHT22;39167;52.794;6.892;2022-12-18T16:57:19;-2.10;99.90
53282;DHT22;39167;52.794;6.892;2022-12-18T16:59:45;-1.70;99.90
53282;DHT22;39167;52.794;6.892;2022-12-18T17:02:37;-2.10;99.90
53282;DHT22;39167;52.794;6.892;2022-12-18T17:05:03;-2.10;99.90
53282;DHT22;39167;52.794;6.892;2022-12-18T17:07:29;-2.10;99.90
53282;DHT22;39167;52.794;6.892;2022-12-18T17:09:55;-2.10;99.90
53282;DHT22;39167;52.794;6.892;2022-12-18T17:12:22;-1.70;99.90
53282;DHT22;39167;52.794;6.892;2022-12-18T17:14:48;-1.70;99.90
53282;DHT22;39167;52.794;6.892;2022-12-18T17:17:13;-2.10;99.90
53282;DHT22;39167;52.794;6.892;2022-12-18T17:19:39;-2.10;99.90
53282;DHT22;39167;52.794;6.892;2022-12-18T17:22:05;-2.00;99.90
53282;DHT22;39167;52.794;6.892;2022-12-18T17:24:32;-2.10;99.90
53282;DHT22;39167;52.794;6.892;2022-12-18T17:26:58;-2.00;99.90
53282;DHT22;39167;52.794;6.892;2022-12-18T17:29:23;-2.00;99.90
53282;DHT22;39167;52.794;6.892;2022-12-18T17:31:49;-2.00;99.90
53282;DHT22;39167;52.794;6.892;2022-12-18T17:34:15;-2.00;99.90
53282;DHT22;39167;52.794;6.892;2022-12-18T17:36:40;-2.00;99.90
53282;DHT22;39167;52.794;6.892;2022-12-18T17:39:06;-2.00;99.90
53282;DHT22;39167;52.794;6.892;2022-12-18T17:41:32;-2.00;99.90
53282;DHT22;39167;52.794;6.892;2022-12-18T17:44:03;-2.00;99.90
53282;DHT22;39167;52.794;6.892;2022-12-18T17:46:30;-2.00;99.90
53282;DHT22;39167;52.794;6.892;2022-12-18T17:49:01;-2.00;99.90